createdAt,value
2018-01-22T00:00:49.576Z,2.20
2018-01-22T00:03:19.820Z,2.20
2018-01-22T00:05:50.165Z,2.20
2018-01-22T00:08:21.129Z,2.20
2018-01-22T00:10:52.031Z,2.20
2018-01-22T00:13:22.343Z,2.10
2018-01-22T00:15:52.675Z,2.10
2018-01-22T00:18:23.639Z,2.10
2018-01-22T00:20:54.911Z,2.10
2018-01-22T00:23:25.098Z,2.10
2018-01-22T00:25:55.987Z,2.20
2018-01-22T00:28:26.462Z,2.20
2018-01-22T00:30:56.552Z,2.10
2018-01-22T00:33:26.687Z,2.20
2018-01-22T00:35:56.885Z,2.20
2018-01-22T00:38:27.309Z,2.10
2018-01-22T00:40:57.254Z,2.20
2018-01-22T00:43:27.204Z,2.20
2018-01-22T00:48:32.629Z,2.20
2018-01-22T00:51:02.748Z,2.20
2018-01-22T00:53:33.111Z,2.20
2018-01-22T00:56:04.316Z,2.20
2018-01-22T00:58:35.247Z,2.20
2018-01-22T01:01:05.726Z,2.30
2018-01-22T01:03:36.023Z,2.30
2018-01-22T01:06:07.337Z,2.30
2018-01-22T01:08:37.721Z,2.30
2018-01-22T01:11:07.851Z,2.30
2018-01-22T01:13:38.137Z,2.30
2018-01-22T01:16:09.306Z,2.30
2018-01-22T01:18:39.577Z,2.40
2018-01-22T01:21:09.663Z,2.30
2018-01-22T01:23:40.072Z,2.30
2018-01-22T01:28:47.100Z,2.40
2018-01-22T01:31:17.074Z,2.40
2018-01-22T01:33:48.270Z,2.30
2018-01-22T01:36:18.668Z,2.30
2018-01-22T01:38:48.978Z,2.40
2018-01-22T01:41:19.222Z,2.30
2018-01-22T01:43:49.469Z,2.30
2018-01-22T01:46:19.717Z,2.30
2018-01-22T01:48:58.728Z,2.30
2018-01-22T01:51:29.116Z,2.30
2018-01-22T01:53:59.118Z,2.30
2018-01-22T01:56:29.114Z,2.30
2018-01-22T01:58:59.895Z,2.30
2018-01-22T02:01:30.412Z,2.30
2018-01-22T02:04:06.048Z,2.20
2018-01-22T02:09:13.379Z,2.20
2018-01-22T02:11:48.179Z,2.20
2018-01-22T02:14:19.333Z,2.30
2018-01-22T02:16:49.815Z,2.30
2018-01-22T02:19:20.125Z,2.30
2018-01-22T02:21:50.637Z,2.20
2018-01-22T02:24:21.961Z,2.30
2018-01-22T02:26:52.500Z,2.30
2018-01-22T02:29:22.833Z,2.30
2018-01-22T02:31:52.777Z,2.30
2018-01-22T02:34:22.765Z,2.20
2018-01-22T02:36:52.761Z,2.20
2018-01-22T02:39:22.800Z,2.30
2018-01-22T02:41:52.755Z,2.30
2018-01-22T02:44:23.788Z,2.30
2018-01-22T02:46:54.569Z,2.30
2018-01-22T02:49:24.730Z,2.30
2018-01-22T02:51:54.648Z,2.30
2018-01-22T02:54:24.888Z,2.30
2018-01-22T02:56:55.561Z,2.30
2018-01-22T02:59:26.136Z,2.30
2018-01-22T03:01:56.394Z,2.30
2018-01-22T03:04:26.743Z,2.30
2018-01-22T03:06:56.986Z,2.30
2018-01-22T03:09:27.003Z,2.30
2018-01-22T03:11:57.231Z,2.30
2018-01-22T03:14:27.656Z,2.30
2018-01-22T03:16:57.629Z,2.30
2018-01-22T03:19:27.652Z,2.30
2018-01-22T03:21:58.867Z,2.20
2018-01-22T03:24:29.106Z,2.20
2018-01-22T03:26:59.473Z,2.30
2018-01-22T03:29:29.480Z,2.30
2018-01-22T03:31:59.835Z,2.20
2018-01-22T03:34:29.767Z,2.20
2018-01-22T03:37:00.892Z,2.10
2018-01-22T03:39:31.398Z,2.10
2018-01-22T03:42:01.579Z,2.10
2018-01-22T03:44:31.530Z,2.00
2018-01-22T03:47:01.590Z,2.00
2018-01-22T03:49:33.069Z,1.90
2018-01-22T03:52:03.000Z,1.90
2018-01-22T03:54:33.071Z,1.90
2018-01-22T03:57:03.805Z,1.90
2018-01-22T03:59:34.837Z,1.90
2018-01-22T04:02:04.835Z,1.90
2018-01-22T04:04:35.497Z,2.00
2018-01-22T04:07:06.651Z,2.00
2018-01-22T04:09:36.919Z,2.00
2018-01-22T04:12:07.065Z,2.00
2018-01-22T04:14:38.178Z,1.90
2018-01-22T04:17:08.374Z,1.90
2018-01-22T04:19:38.664Z,1.90
2018-01-22T04:22:09.275Z,2.00
2018-01-22T04:24:40.082Z,2.00
2018-01-22T04:27:10.249Z,2.00
2018-01-22T04:29:40.571Z,1.90
2018-01-22T04:32:10.520Z,1.90
2018-01-22T04:34:40.789Z,1.90
2018-01-22T04:37:11.660Z,1.80
2018-01-22T04:39:42.459Z,1.70
2018-01-22T04:42:13.353Z,1.70
2018-01-22T04:44:43.422Z,1.60
2018-01-22T04:47:13.451Z,1.60
2018-01-22T04:49:45.115Z,1.50
2018-01-22T04:52:16.047Z,1.40
2018-01-22T04:54:46.992Z,1.40
2018-01-22T04:57:18.288Z,1.50
2018-01-22T04:59:49.039Z,1.50
2018-01-22T05:02:19.457Z,1.50
2018-01-22T05:04:49.787Z,1.50
2018-01-22T05:07:19.735Z,1.50
2018-01-22T05:09:49.792Z,1.50
2018-01-22T05:12:19.740Z,1.50
2018-01-22T05:14:50.065Z,1.50
2018-01-22T05:17:19.996Z,1.50
2018-01-22T05:19:49.968Z,1.50
2018-01-22T05:22:19.964Z,1.50
2018-01-22T05:24:49.884Z,1.60
2018-01-22T05:27:19.836Z,1.60
2018-01-22T05:29:50.536Z,1.60
2018-01-22T05:32:21.608Z,1.60
2018-01-22T05:34:51.757Z,1.60
2018-01-22T05:37:21.677Z,1.60
2018-01-22T05:39:51.960Z,1.60
2018-01-22T05:42:21.955Z,1.60
2018-01-22T05:44:56.131Z,1.60
2018-01-22T05:47:26.765Z,1.70
2018-01-22T05:50:00.608Z,1.70
2018-01-22T05:52:30.865Z,1.70
2018-01-22T05:55:01.654Z,1.70
2018-01-22T05:57:31.780Z,1.70
2018-01-22T06:00:01.842Z,1.80
2018-01-22T06:02:32.706Z,1.70
2018-01-22T06:05:03.108Z,1.70
2018-01-22T06:07:33.186Z,1.70
2018-01-22T06:10:03.189Z,1.70
2018-01-22T06:12:33.252Z,1.70
2018-01-22T06:15:05.935Z,1.70
2018-01-22T06:17:36.613Z,1.70
2018-01-22T06:20:06.665Z,1.80
2018-01-22T06:22:36.907Z,1.70
2018-01-22T06:25:08.418Z,1.70
2018-01-22T06:27:38.437Z,1.70
2018-01-22T06:30:08.959Z,1.80
2018-01-22T06:32:39.375Z,1.80
2018-01-22T06:35:09.446Z,1.80
2018-01-22T06:37:40.244Z,1.80
2018-01-22T06:40:11.019Z,1.80
2018-01-22T06:42:41.286Z,1.80
2018-01-22T06:45:11.316Z,1.80
2018-01-22T06:47:41.325Z,1.90
2018-01-22T06:50:11.446Z,1.80
2018-01-22T06:52:41.577Z,1.80
2018-01-22T06:55:12.145Z,1.80
2018-01-22T06:57:42.948Z,1.80
2018-01-22T07:00:12.988Z,1.80
2018-01-22T07:02:43.266Z,1.80
2018-01-22T07:05:13.330Z,1.80
2018-01-22T07:07:49.721Z,1.90
2018-01-22T07:10:20.480Z,1.90
2018-01-22T07:12:50.955Z,1.90
2018-01-22T07:15:21.715Z,2.00
2018-01-22T07:17:51.756Z,2.00
2018-01-22T07:20:21.879Z,2.00
2018-01-22T07:22:52.119Z,2.00
2018-01-22T07:25:22.490Z,2.00
2018-01-22T07:27:52.530Z,2.00
2018-01-22T07:30:22.507Z,2.00
2018-01-22T07:32:53.294Z,2.10
2018-01-22T07:35:25.089Z,2.10
2018-01-22T07:37:55.540Z,2.10
2018-01-22T07:40:27.093Z,2.10
2018-01-22T07:42:57.696Z,2.10
2018-01-22T07:45:28.578Z,2.10
2018-01-22T07:47:59.187Z,2.10
2018-01-22T07:50:30.770Z,2.10
2018-01-22T07:53:01.049Z,2.20
2018-01-22T07:55:32.700Z,2.30
2018-01-22T07:58:05.427Z,2.20
2018-01-22T08:00:36.935Z,2.20
2018-01-22T08:03:08.083Z,2.30
2018-01-22T08:05:39.570Z,2.30
2018-01-22T08:08:11.202Z,2.30
2018-01-22T08:10:41.252Z,2.30
2018-01-22T08:13:11.347Z,2.30
2018-01-22T08:15:41.767Z,2.30
2018-01-22T08:18:12.163Z,2.40
2018-01-22T08:20:43.366Z,2.50
2018-01-22T08:23:13.499Z,2.50
2018-01-22T08:25:43.693Z,2.50
2018-01-22T08:28:13.748Z,2.50
2018-01-22T08:30:43.878Z,2.50
2018-01-22T08:33:13.984Z,2.50
2018-01-22T08:35:44.394Z,2.60
2018-01-22T08:38:14.599Z,2.50
2018-01-22T08:40:44.731Z,2.60
2018-01-22T08:43:14.825Z,2.60
2018-01-22T08:45:45.272Z,2.70
2018-01-22T08:48:15.423Z,2.70
2018-01-22T08:50:46.451Z,2.80
2018-01-22T08:53:16.580Z,2.80
2018-01-22T08:55:46.728Z,2.80
2018-01-22T08:58:17.492Z,2.90
2018-01-22T09:00:47.536Z,2.80
2018-01-22T09:03:17.575Z,2.90
2018-01-22T09:05:47.876Z,2.90
2018-01-22T09:08:19.444Z,3.00
2018-01-22T09:10:50.012Z,3.00
2018-01-22T09:13:20.148Z,3.00
2018-01-22T09:15:50.324Z,2.90
2018-01-22T09:18:21.831Z,3.00
2018-01-22T09:20:53.060Z,3.00
2018-01-22T09:23:23.167Z,3.00
2018-01-22T09:25:53.309Z,3.10
2018-01-22T09:28:23.543Z,3.10
2018-01-22T09:30:53.959Z,3.10
2018-01-22T09:33:23.985Z,3.10
2018-01-22T09:35:53.993Z,3.10
2018-01-22T09:38:24.318Z,3.20
2018-01-22T09:40:54.505Z,3.20
2018-01-22T09:43:24.531Z,3.20
2018-01-22T09:45:54.680Z,3.20
2018-01-22T09:48:24.991Z,3.30
2018-01-22T09:50:55.416Z,3.30
2018-01-22T09:53:25.585Z,3.40
2018-01-22T09:55:56.576Z,3.50
2018-01-22T09:58:26.945Z,3.50
2018-01-22T10:00:57.716Z,3.50
2018-01-22T10:03:28.708Z,3.50
2018-01-22T10:05:59.045Z,3.50
2018-01-22T10:08:29.886Z,3.50
2018-01-22T10:11:00.784Z,3.50
2018-01-22T10:13:30.977Z,3.50
2018-01-22T10:16:02.023Z,3.60
2018-01-22T10:18:32.220Z,3.50
2018-01-22T10:21:02.373Z,3.60
2018-01-22T10:23:32.514Z,3.60
2018-01-22T10:26:02.492Z,3.70
2018-01-22T10:28:32.862Z,3.70
2018-01-22T10:31:03.861Z,3.70
2018-01-22T10:33:33.965Z,3.80
2018-01-22T10:36:04.043Z,3.80
2018-01-22T10:38:34.081Z,3.80
2018-01-22T10:41:11.198Z,3.80
2018-01-22T10:43:43.039Z,3.90
2018-01-22T10:46:13.092Z,3.90
2018-01-22T10:48:43.107Z,4.00
2018-01-22T10:51:13.187Z,4.00
2018-01-22T10:53:43.265Z,4.10
2018-01-22T10:56:13.446Z,4.10
2018-01-22T10:58:43.616Z,4.10
2018-01-22T11:01:14.583Z,4.20
2018-01-22T11:03:44.578Z,4.10
2018-01-22T11:06:15.472Z,4.20
2018-01-22T11:08:45.490Z,4.20
2018-01-22T11:11:15.896Z,4.30
2018-01-22T11:13:45.947Z,4.30
2018-01-22T11:16:16.021Z,4.40
2018-01-22T11:18:46.035Z,4.30
2018-01-22T11:21:16.394Z,4.40
2018-01-22T11:23:46.516Z,4.40
2018-01-22T11:26:16.534Z,4.40
2018-01-22T11:28:47.195Z,4.50
2018-01-22T11:31:19.098Z,4.50
2018-01-22T11:33:49.543Z,4.50
2018-01-22T11:36:19.547Z,4.50
2018-01-22T11:38:49.704Z,4.50
2018-01-22T11:41:19.880Z,4.60
2018-01-22T11:43:50.978Z,4.60
2018-01-22T11:46:21.000Z,4.50
2018-01-22T11:48:53.062Z,4.60
2018-01-22T11:51:23.630Z,4.60
2018-01-22T11:53:53.977Z,4.60
2018-01-22T11:56:24.059Z,4.60
2018-01-22T11:58:54.255Z,4.70
2018-01-22T12:01:25.198Z,4.70
2018-01-22T12:03:55.731Z,4.70
2018-01-22T12:06:26.695Z,4.80
2018-01-22T12:08:56.796Z,4.80
2018-01-22T12:11:26.849Z,4.80
2018-01-22T12:13:56.917Z,4.80
2018-01-22T12:16:27.859Z,5.00
2018-01-22T12:18:58.166Z,5.00
2018-01-22T12:21:29.431Z,5.10
2018-01-22T12:24:00.467Z,5.20
2018-01-22T12:26:30.646Z,5.20
2018-01-22T12:29:01.916Z,5.20
2018-01-22T12:31:32.297Z,5.20
2018-01-22T12:34:02.355Z,5.30
2018-01-22T12:36:32.515Z,5.40
2018-01-22T12:39:02.539Z,5.40
2018-01-22T12:41:32.636Z,5.40
2018-01-22T12:44:02.758Z,5.40
2018-01-22T12:46:32.911Z,5.50
2018-01-22T12:49:03.423Z,5.50
2018-01-22T12:51:33.522Z,5.50
2018-01-22T12:54:04.555Z,5.50
2018-01-22T12:56:35.606Z,5.60
2018-01-22T12:59:05.932Z,5.60
2018-01-22T13:01:36.956Z,5.60
2018-01-22T13:04:07.949Z,5.60
2018-01-22T13:06:38.102Z,5.60
2018-01-22T13:09:08.488Z,5.60
2018-01-22T13:11:38.542Z,5.60
2018-01-22T13:14:12.124Z,5.60
2018-01-22T13:16:44.430Z,5.70
2018-01-22T13:19:14.565Z,5.70
2018-01-22T13:21:44.630Z,5.80
2018-01-22T13:24:14.722Z,5.80
2018-01-22T13:26:44.858Z,5.80
2018-01-22T13:29:15.000Z,5.90
2018-01-22T13:31:45.509Z,5.90
2018-01-22T13:34:16.357Z,6.00
2018-01-22T13:36:46.516Z,6.00
2018-01-22T13:39:17.351Z,6.10
2018-01-22T13:41:48.440Z,6.10
2018-01-22T13:44:18.643Z,6.10
2018-01-22T13:46:48.953Z,6.10
2018-01-22T13:49:19.119Z,6.10
2018-01-22T13:51:49.492Z,6.10
2018-01-22T13:54:19.674Z,6.20
2018-01-22T13:56:49.795Z,6.30
2018-01-22T13:59:20.211Z,6.30
2018-01-22T14:01:50.958Z,6.30
2018-01-22T14:04:21.379Z,6.30
2018-01-22T14:06:52.413Z,6.30
2018-01-22T14:09:22.620Z,6.30
2018-01-22T14:11:53.648Z,6.30
2018-01-22T14:14:26.143Z,6.30
2018-01-22T14:16:57.320Z,6.30
2018-01-22T14:19:27.413Z,6.30
2018-01-22T14:21:58.100Z,6.30
2018-01-22T14:24:28.756Z,6.30
2018-01-22T14:26:58.858Z,6.40
2018-01-22T14:29:28.954Z,6.40
2018-01-22T14:35:09.540Z,6.30
2018-01-22T14:37:40.223Z,6.30
2018-01-22T14:40:10.402Z,6.30
2018-01-22T14:42:40.974Z,6.30
2018-01-22T14:45:11.099Z,6.30
2018-01-22T14:47:43.012Z,6.30
2018-01-22T14:50:14.394Z,6.30
2018-01-22T14:52:45.508Z,6.30
2018-01-22T14:55:18.532Z,6.30
2018-01-22T14:57:48.961Z,6.30
2018-01-22T15:00:19.925Z,6.30
2018-01-22T15:02:50.294Z,6.30
2018-01-22T15:05:20.624Z,6.30
2018-01-22T15:07:52.684Z,6.30
2018-01-22T15:10:23.275Z,6.40
2018-01-22T15:12:53.804Z,6.40
2018-01-22T15:15:24.883Z,6.40
2018-01-22T15:17:55.009Z,6.40
2018-01-22T15:20:25.277Z,6.40
2018-01-22T15:22:55.400Z,6.40
2018-01-22T15:25:25.755Z,6.40
2018-01-22T15:27:56.678Z,6.40
2018-01-22T15:30:26.894Z,6.30
2018-01-22T15:32:57.129Z,6.40
2018-01-22T15:35:27.323Z,6.40
2018-01-22T15:37:58.477Z,6.30
2018-01-22T15:40:29.169Z,6.30
2018-01-22T15:42:59.291Z,6.40
2018-01-22T15:45:29.707Z,6.40
2018-01-22T15:47:59.788Z,6.40
2018-01-22T15:50:40.759Z,6.40
2018-01-22T15:53:11.010Z,6.40
2018-01-22T15:55:41.588Z,6.40
2018-01-22T16:01:45.692Z,6.40
2018-01-22T16:04:16.231Z,6.30
2018-01-22T16:11:17.009Z,6.40
2018-01-22T16:13:58.355Z,6.40
2018-01-22T16:16:28.460Z,6.30
2018-01-22T16:18:58.618Z,6.30
2018-01-22T16:21:29.087Z,6.30
2018-01-22T16:23:59.562Z,6.30
2018-01-22T16:29:09.965Z,6.40
2018-01-22T16:31:40.113Z,6.40
2018-01-22T16:34:10.291Z,6.40
2018-01-22T16:36:40.783Z,6.40
2018-01-22T16:39:11.405Z,6.40
2018-01-22T16:41:43.215Z,6.30
2018-01-22T16:44:14.499Z,6.30
2018-01-22T16:46:50.009Z,6.30
2018-01-22T16:49:21.669Z,6.30
2018-01-22T16:51:52.178Z,6.30
2018-01-22T16:54:23.263Z,6.40
2018-01-22T16:56:54.983Z,6.30
2018-01-22T16:59:26.559Z,6.40
2018-01-22T17:01:56.950Z,6.40
2018-01-22T17:04:27.413Z,6.40
2018-01-22T17:06:58.980Z,6.40
2018-01-22T17:09:40.107Z,6.40
2018-01-22T17:12:13.213Z,6.40
2018-01-22T17:14:44.844Z,6.40
2018-01-22T17:17:16.333Z,6.40
2018-01-22T17:19:47.686Z,6.40
2018-01-22T17:26:49.232Z,6.40
2018-01-22T17:29:29.818Z,6.40
2018-01-22T17:32:11.137Z,6.40
2018-01-22T17:34:41.281Z,6.40
2018-01-22T17:41:43.258Z,6.40
2018-01-22T17:44:13.551Z,6.40
2018-01-22T17:46:44.117Z,6.40
2018-01-22T17:49:14.236Z,6.40
2018-01-22T17:51:44.565Z,6.40
2018-01-22T17:54:14.949Z,6.40
2018-01-22T17:56:45.128Z,6.40
2018-01-22T17:59:15.365Z,6.40
2018-01-22T18:01:45.864Z,6.40
2018-01-22T18:04:17.393Z,6.40
2018-01-22T18:06:48.324Z,6.40
2018-01-22T18:09:19.735Z,6.40
2018-01-22T18:11:50.845Z,6.30
2018-01-22T18:14:21.799Z,6.30
2018-01-22T18:16:52.458Z,6.30
2018-01-22T18:19:24.074Z,6.30
2018-01-22T18:21:54.360Z,6.30
2018-01-22T18:24:26.542Z,6.30
2018-01-22T18:26:56.987Z,6.30
2018-01-22T18:29:29.234Z,6.40
2018-01-22T18:34:35.119Z,6.30
2018-01-22T18:37:05.489Z,6.30
2018-01-22T18:39:35.623Z,6.30
2018-01-22T18:42:06.434Z,6.40
2018-01-22T18:44:37.850Z,6.30
2018-01-22T18:47:08.139Z,6.30
2018-01-22T18:49:38.361Z,6.30
2018-01-22T18:52:09.769Z,6.20
2018-01-22T18:54:39.913Z,6.20
2018-01-22T18:57:10.729Z,6.30
2018-01-22T18:59:40.968Z,6.30
2018-01-22T19:02:11.168Z,6.30
2018-01-22T19:04:41.316Z,6.30
2018-01-22T19:07:11.813Z,6.30
2018-01-22T19:09:41.897Z,6.40
2018-01-22T19:12:13.095Z,6.30
2018-01-22T19:14:44.657Z,6.30
2018-01-22T19:17:15.522Z,6.30
2018-01-22T19:19:47.424Z,6.20
2018-01-22T19:22:18.105Z,6.30
2018-01-22T19:24:48.676Z,6.30
2018-01-22T19:27:50.087Z,6.30
2018-01-22T19:30:21.230Z,6.30
2018-01-22T19:32:51.788Z,6.30
2018-01-22T19:35:32.397Z,6.30
2018-01-22T19:38:03.345Z,6.40
2018-01-22T19:40:35.814Z,6.30
2018-01-22T19:43:05.880Z,6.30
2018-01-22T19:45:36.226Z,6.30
2018-01-22T19:48:06.463Z,6.30
2018-01-22T19:50:36.571Z,6.30
2018-01-22T19:53:07.584Z,6.30
2018-01-22T19:55:38.251Z,6.30
2018-01-22T19:58:08.539Z,6.40
2018-01-22T20:00:49.109Z,6.40
2018-01-22T20:03:19.261Z,6.40
2018-01-22T20:05:50.204Z,6.30
2018-01-22T20:08:26.033Z,6.30
2018-01-22T20:10:56.537Z,6.30
2018-01-22T20:13:26.755Z,6.30
2018-01-22T20:15:56.905Z,6.30
2018-01-22T20:18:29.304Z,6.20
2018-01-22T20:21:00.380Z,6.20
2018-01-22T20:23:30.573Z,6.20
2018-01-22T20:26:03.617Z,6.20
2018-01-22T20:28:34.645Z,6.30
2018-01-22T20:31:05.058Z,6.30
2018-01-22T20:33:36.017Z,6.30
2018-01-22T20:36:06.118Z,6.40
2018-01-22T20:38:36.281Z,6.40
2018-01-22T20:41:07.796Z,6.30
2018-01-22T20:43:37.900Z,6.30
2018-01-22T20:46:08.887Z,6.30
2018-01-22T20:48:39.052Z,6.30
2018-01-22T20:51:09.904Z,6.30
2018-01-22T20:53:40.255Z,6.30
2018-01-22T20:56:10.600Z,6.30
2018-01-22T20:58:41.808Z,6.30
2018-01-22T21:01:12.112Z,6.40
2018-01-22T21:03:42.212Z,6.30
2018-01-22T21:06:12.416Z,6.30
2018-01-22T21:08:43.991Z,6.30
2018-01-22T21:11:15.328Z,6.30
2018-01-22T21:13:47.170Z,6.30
2018-01-22T21:16:18.648Z,6.30
2018-01-22T21:18:48.983Z,6.20
2018-01-22T21:21:19.369Z,6.20
2018-01-22T21:23:49.946Z,6.30
2018-01-22T21:26:20.245Z,6.30
2018-01-22T21:28:51.177Z,6.30
2018-01-22T21:31:21.598Z,6.30
2018-01-22T21:33:52.929Z,6.30
2018-01-22T21:36:23.056Z,6.30
2018-01-22T21:38:53.644Z,6.30
2018-01-22T21:41:24.068Z,6.30
2018-01-22T21:43:54.379Z,6.20
2018-01-22T21:46:24.538Z,6.20
2018-01-22T21:48:56.104Z,6.30
2018-01-22T21:51:26.225Z,6.30
2018-01-22T21:53:57.106Z,6.20
2018-01-22T21:56:27.687Z,6.30
2018-01-22T21:58:58.467Z,6.30
2018-01-22T22:01:28.899Z,6.20
2018-01-22T22:03:59.023Z,6.20
2018-01-22T22:06:29.375Z,6.30
2018-01-22T22:08:59.556Z,6.30
2018-01-22T22:11:29.568Z,6.30
2018-01-22T22:13:59.672Z,6.30
2018-01-22T22:16:30.644Z,6.20
2018-01-22T22:19:00.980Z,6.20
2018-01-22T22:21:31.417Z,6.20
2018-01-22T22:24:01.825Z,6.20
2018-01-22T22:26:32.207Z,6.20
2018-01-22T22:29:02.710Z,6.30
2018-01-22T22:31:32.797Z,6.20
2018-01-22T22:34:02.958Z,6.20
2018-01-22T22:36:33.848Z,6.20
2018-01-22T22:39:04.427Z,6.20
2018-01-22T22:41:35.601Z,6.20
2018-01-22T22:44:05.739Z,6.20
2018-01-22T22:46:35.897Z,6.20
2018-01-22T22:49:07.434Z,6.20
2018-01-22T22:51:37.980Z,6.20
2018-01-22T22:54:08.360Z,6.30
2018-01-22T22:56:39.674Z,6.30
2018-01-22T22:59:10.753Z,6.20
2018-01-22T23:01:41.081Z,6.20
2018-01-22T23:04:11.085Z,6.20
2018-01-22T23:06:41.277Z,6.20
2018-01-22T23:09:12.785Z,6.20
2018-01-22T23:11:42.766Z,6.20
2018-01-22T23:14:12.975Z,6.20
2018-01-22T23:16:43.424Z,6.20
2018-01-22T23:19:13.773Z,6.20
2018-01-22T23:21:44.209Z,6.30
2018-01-22T23:24:14.404Z,6.20
2018-01-22T23:26:45.823Z,6.30
2018-01-22T23:29:15.960Z,6.20
2018-01-22T23:31:46.593Z,6.20
2018-01-22T23:34:16.651Z,6.20
2018-01-22T23:36:47.755Z,6.30
2018-01-22T23:39:17.943Z,6.30
2018-01-22T23:41:48.067Z,6.30
2018-01-22T23:44:19.216Z,6.30
2018-01-22T23:46:49.837Z,6.30
2018-01-22T23:49:20.116Z,6.20
2018-01-22T23:51:51.132Z,6.20
2018-01-22T23:54:22.241Z,6.20
2018-01-22T23:56:52.435Z,6.20
2018-01-22T23:59:23.608Z,6.20
